createdAt,value
2018-10-16T00:00:28.873Z,15.47
2018-10-16T00:02:57.416Z,14.60
2018-10-16T00:05:25.878Z,17.83
2018-10-16T00:07:54.424Z,16.77
2018-10-16T00:10:28.356Z,20.17
2018-10-16T00:12:56.980Z,16.13
2018-10-16T00:15:25.508Z,15.03
2018-10-16T00:17:54.019Z,16.33
2018-10-16T00:20:22.512Z,14.23
2018-10-16T00:22:51.025Z,17.53
2018-10-16T00:25:19.504Z,16.20
2018-10-16T00:27:47.986Z,15.03
2018-10-16T00:30:16.516Z,15.43
2018-10-16T00:32:45.228Z,16.53
2018-10-16T00:35:13.593Z,12.10
2018-10-16T00:37:42.072Z,16.53
2018-10-16T00:40:10.756Z,12.30
2018-10-16T00:42:39.241Z,14.10
2018-10-16T00:45:08.573Z,14.80
2018-10-16T00:47:37.138Z,15.93
2018-10-16T00:50:05.707Z,12.20
2018-10-16T00:52:34.366Z,20.23
2018-10-16T00:55:02.993Z,16.07
2018-10-16T00:57:31.511Z,12.90
2018-10-16T00:59:59.991Z,12.37
2018-10-16T01:02:28.476Z,15.17
2018-10-16T01:04:56.963Z,11.27
2018-10-16T01:07:25.459Z,17.07
2018-10-16T01:09:53.936Z,14.80
2018-10-16T01:12:22.464Z,13.13
2018-10-16T01:14:50.948Z,14.47
2018-10-16T01:17:19.458Z,15.20
2018-10-16T01:19:47.932Z,19.53
2018-10-16T01:22:16.457Z,18.03
2018-10-16T01:24:44.978Z,19.93
2018-10-16T01:27:13.480Z,14.80
2018-10-16T01:29:41.969Z,12.93
2018-10-16T01:32:10.502Z,16.43
2018-10-16T01:34:39.003Z,13.23
2018-10-16T01:37:07.490Z,15.30
2018-10-16T01:39:36.020Z,14.90
2018-10-16T01:42:04.517Z,17.07
2018-10-16T01:44:32.992Z,18.93
2018-10-16T01:47:01.569Z,16.20
2018-10-16T01:49:30.017Z,17.63
2018-10-16T01:51:58.606Z,17.47
2018-10-16T01:54:27.096Z,14.53
2018-10-16T01:56:55.583Z,16.17
2018-10-16T01:59:24.096Z,13.80
2018-10-16T02:01:52.596Z,13.13
2018-10-16T02:04:21.071Z,14.37
2018-10-16T02:06:49.531Z,15.27
2018-10-16T02:09:18.004Z,12.87
2018-10-16T02:11:46.501Z,17.27
2018-10-16T02:14:14.948Z,15.43
2018-10-16T02:16:43.468Z,17.73
2018-10-16T02:19:11.960Z,15.10
2018-10-16T02:21:41.916Z,16.83
2018-10-16T02:24:10.380Z,18.10
2018-10-16T02:26:38.855Z,12.87
2018-10-16T02:29:07.327Z,16.57
2018-10-16T02:31:35.807Z,15.80
2018-10-16T02:34:04.413Z,20.47
2018-10-16T02:36:32.893Z,15.67
2018-10-16T02:39:01.359Z,15.03
2018-10-16T02:41:29.844Z,14.43
2018-10-16T02:43:59.348Z,15.07
2018-10-16T02:46:27.841Z,17.53
2018-10-16T02:48:56.339Z,15.43
2018-10-16T02:51:25.851Z,19.33
2018-10-16T02:53:54.340Z,15.83
2018-10-16T02:56:22.870Z,17.13
2018-10-16T02:58:51.320Z,14.27
2018-10-16T03:01:19.809Z,15.50
2018-10-16T03:03:48.280Z,14.40
2018-10-16T03:06:16.766Z,15.43
2018-10-16T03:08:45.216Z,15.20
2018-10-16T03:11:13.719Z,15.97
2018-10-16T03:13:42.185Z,13.63
2018-10-16T03:16:10.641Z,14.60
2018-10-16T03:18:39.164Z,15.33
2018-10-16T03:21:07.623Z,14.90
2018-10-16T03:23:36.187Z,13.07
2018-10-16T03:26:04.857Z,15.40
2018-10-16T03:28:33.321Z,15.80
2018-10-16T03:31:01.857Z,20.73
2018-10-16T03:33:30.327Z,19.43
2018-10-16T03:35:58.799Z,14.30
2018-10-16T03:38:27.634Z,14.73
2018-10-16T03:40:57.140Z,16.33
2018-10-16T03:43:25.610Z,15.27
2018-10-16T03:45:54.130Z,20.27
2018-10-16T03:48:22.603Z,17.77
2018-10-16T03:50:52.120Z,15.73
2018-10-16T03:53:20.580Z,16.63
2018-10-16T03:55:49.127Z,18.33
2018-10-16T03:58:17.603Z,16.60
2018-10-16T04:00:46.084Z,14.83
2018-10-16T04:03:15.672Z,13.23
2018-10-16T04:05:44.120Z,15.13
2018-10-16T04:08:12.590Z,14.63
2018-10-16T04:10:42.207Z,16.87
2018-10-16T04:13:10.679Z,16.23
2018-10-16T04:15:39.168Z,14.57
2018-10-16T04:18:07.649Z,14.33
2018-10-16T04:20:36.172Z,18.13
2018-10-16T04:23:04.751Z,19.70
2018-10-16T04:25:33.210Z,19.27
2018-10-16T04:28:01.699Z,14.57
2018-10-16T04:30:30.201Z,16.03
2018-10-16T04:32:58.727Z,16.87
2018-10-16T04:35:27.284Z,20.33
2018-10-16T04:37:56.808Z,14.73
2018-10-16T04:40:25.290Z,20.27
2018-10-16T04:42:53.773Z,17.97
2018-10-16T04:45:22.333Z,15.67
2018-10-16T04:47:50.807Z,16.73
2018-10-16T04:50:19.364Z,14.20
2018-10-16T04:52:47.808Z,18.53
2018-10-16T04:55:16.321Z,16.43
2018-10-16T04:57:44.864Z,15.57
2018-10-16T05:00:13.389Z,14.63
2018-10-16T05:02:42.248Z,19.23
2018-10-16T05:05:16.379Z,22.73
2018-10-16T05:07:44.871Z,19.00
2018-10-16T05:10:13.324Z,16.67
2018-10-16T05:12:41.808Z,15.73
2018-10-16T05:15:11.096Z,20.00
2018-10-16T05:17:39.552Z,16.00
2018-10-16T05:20:08.079Z,15.40
2018-10-16T05:22:37.616Z,17.13
2018-10-16T05:25:06.143Z,21.33
2018-10-16T05:27:34.724Z,16.33
2018-10-16T05:30:04.276Z,18.47
2018-10-16T05:32:32.736Z,19.10
2018-10-16T05:35:01.264Z,14.27
2018-10-16T05:37:29.716Z,16.03
2018-10-16T05:39:58.185Z,20.30
2018-10-16T05:42:27.660Z,26.60
2018-10-16T05:44:56.171Z,26.27
2018-10-16T05:47:24.982Z,32.63
2018-10-16T05:49:54.703Z,24.97
2018-10-16T05:52:23.176Z,33.90
2018-10-16T05:54:51.684Z,22.00
2018-10-16T05:57:20.153Z,19.53
2018-10-16T05:59:48.649Z,25.63
2018-10-16T06:02:17.119Z,23.90
2018-10-16T06:04:45.700Z,25.30
2018-10-16T06:07:14.226Z,21.93
2018-10-16T06:09:42.740Z,22.87
2018-10-16T06:12:11.256Z,21.47
2018-10-16T06:14:39.748Z,16.40
2018-10-16T06:17:08.285Z,15.13
2018-10-16T06:19:36.768Z,19.37
2018-10-16T06:22:06.299Z,21.43
2018-10-16T06:24:34.857Z,18.10
2018-10-16T06:27:03.265Z,19.93
2018-10-16T06:29:31.755Z,20.27
2018-10-16T06:32:00.252Z,21.63
2018-10-16T06:34:28.780Z,18.73
2018-10-16T06:36:57.269Z,21.83
2018-10-16T06:39:25.757Z,17.63
2018-10-16T06:41:54.214Z,17.60
2018-10-16T06:44:22.719Z,15.70
2018-10-16T06:46:51.188Z,18.17
2018-10-16T06:49:19.659Z,16.93
2018-10-16T06:51:48.253Z,20.07
2018-10-16T06:54:16.749Z,14.97
2018-10-16T06:56:45.236Z,17.43
2018-10-16T06:59:14.633Z,17.67
2018-10-16T07:01:43.099Z,18.60
2018-10-16T07:04:12.668Z,21.90
2018-10-16T07:06:41.214Z,21.50
2018-10-16T07:09:09.925Z,20.40
2018-10-16T07:11:39.181Z,18.97
2018-10-16T07:14:09.984Z,20.43
2018-10-16T07:16:38.468Z,20.70
2018-10-16T07:19:08.732Z,19.77
2018-10-16T07:21:37.295Z,23.90
2018-10-16T07:24:05.924Z,20.03
2018-10-16T07:26:34.377Z,24.53
2018-10-16T07:29:03.977Z,25.30
2018-10-16T07:31:32.425Z,19.97
2018-10-16T07:34:00.904Z,29.43
2018-10-16T07:36:29.521Z,22.50
2018-10-16T07:38:58.076Z,23.60
2018-10-16T07:41:26.589Z,23.93
2018-10-16T07:43:55.060Z,20.00
2018-10-16T07:46:23.524Z,21.20
2018-10-16T07:48:52.038Z,19.30
2018-10-16T07:51:21.594Z,29.50
2018-10-16T07:53:50.044Z,21.90
2018-10-16T07:56:18.566Z,25.57
2018-10-16T07:58:47.065Z,18.87
2018-10-16T08:01:15.577Z,31.20
2018-10-16T08:03:44.062Z,25.83
2018-10-16T08:06:12.531Z,23.60
2018-10-16T08:08:40.993Z,27.40
2018-10-16T08:11:09.529Z,23.07
2018-10-16T08:13:39.062Z,21.27
2018-10-16T08:16:08.289Z,22.30
2018-10-16T08:18:36.757Z,28.33
2018-10-16T08:21:12.291Z,32.73
2018-10-16T08:23:40.741Z,25.03
2018-10-16T08:26:09.249Z,33.80
2018-10-16T08:28:37.725Z,33.13
2018-10-16T08:31:06.343Z,34.57
2018-10-16T08:33:34.805Z,31.17
2018-10-16T08:36:03.394Z,32.23
2018-10-16T08:38:39.745Z,29.73
2018-10-16T08:41:08.558Z,32.03
2018-10-16T08:43:44.495Z,30.03
2018-10-16T08:46:18.712Z,31.63
2018-10-16T08:48:52.788Z,29.70
2018-10-16T08:51:29.119Z,25.43
2018-10-16T08:53:57.577Z,25.60
2018-10-16T08:56:26.070Z,30.93
2018-10-16T08:58:54.546Z,24.87
2018-10-16T09:01:23.028Z,36.60
2018-10-16T09:03:51.544Z,40.17
2018-10-16T09:06:20.004Z,35.07
2018-10-16T09:08:48.460Z,38.03
2018-10-16T09:11:16.927Z,35.20
2018-10-16T09:13:45.490Z,30.53
2018-10-16T09:16:13.932Z,34.57
2018-10-16T09:18:42.449Z,36.77
2018-10-16T09:21:10.954Z,31.27
2018-10-16T09:23:39.443Z,40.23
2018-10-16T09:26:07.932Z,32.03
2018-10-16T09:28:36.848Z,39.37
2018-10-16T09:31:05.463Z,31.43
2018-10-16T09:33:33.909Z,40.00
2018-10-16T09:36:02.728Z,34.30
2018-10-16T09:38:31.186Z,31.17
2018-10-16T09:41:00.741Z,48.07
2018-10-16T09:43:29.217Z,33.17
2018-10-16T09:45:57.692Z,40.60
2018-10-16T09:48:26.179Z,34.67
2018-10-16T09:50:54.785Z,40.30
2018-10-16T09:53:23.260Z,36.40
2018-10-16T09:55:51.720Z,39.83
2018-10-16T09:58:20.218Z,37.23
2018-10-16T10:00:54.186Z,44.47
2018-10-16T10:03:22.839Z,45.78
2018-10-16T10:05:51.404Z,44.67
2018-10-16T10:08:19.909Z,44.43
2018-10-16T10:10:48.449Z,39.20
2018-10-16T10:13:16.875Z,36.53
2018-10-16T10:15:45.437Z,39.50
2018-10-16T10:18:13.971Z,38.87
2018-10-16T10:20:42.428Z,38.23
2018-10-16T10:23:10.954Z,52.73
2018-10-16T10:25:39.427Z,40.27
2018-10-16T10:28:07.924Z,39.50
2018-10-16T10:30:36.395Z,47.80
2018-10-16T10:33:04.961Z,34.80
2018-10-16T10:35:33.498Z,32.10
2018-10-16T10:38:01.891Z,37.67
2018-10-16T10:40:30.355Z,32.30
2018-10-16T10:42:58.829Z,38.77
2018-10-16T10:45:27.313Z,39.30
2018-10-16T10:47:55.799Z,35.57
2018-10-16T10:50:24.532Z,33.40
2018-10-16T10:52:52.808Z,52.67
2018-10-16T10:55:21.234Z,227.67
2018-10-16T10:57:49.724Z,215.63
2018-10-16T11:00:18.208Z,99.07
2018-10-16T11:02:48.046Z,223.93
2018-10-16T11:05:16.513Z,68.83
2018-10-16T11:07:45.013Z,40.27
2018-10-16T11:10:14.144Z,325.93
2018-10-16T11:12:43.767Z,341.93
2018-10-16T11:15:12.357Z,56.80
2018-10-16T11:17:41.229Z,47.43
2018-10-16T11:20:11.438Z,45.97
2018-10-16T11:22:39.980Z,34.97
2018-10-16T11:25:09.434Z,33.17
2018-10-16T11:27:38.012Z,43.37
2018-10-16T11:30:08.062Z,47.93
2018-10-16T11:32:36.505Z,41.13
2018-10-16T11:35:05.169Z,48.50
2018-10-16T11:37:33.650Z,43.23
2018-10-16T11:40:02.113Z,39.97
2018-10-16T11:42:30.596Z,39.83
2018-10-16T11:44:59.160Z,43.27
2018-10-16T11:47:27.579Z,48.70
2018-10-16T11:49:56.110Z,47.63
2018-10-16T11:52:24.626Z,49.83
2018-10-16T11:54:53.141Z,40.37
2018-10-16T11:57:21.635Z,36.27
2018-10-16T11:59:50.120Z,33.10
2018-10-16T12:02:18.702Z,40.70
2018-10-16T12:04:47.233Z,31.93
2018-10-16T12:07:16.028Z,63.80
2018-10-16T12:09:44.754Z,236.23
2018-10-16T12:12:13.227Z,158.57
2018-10-16T12:14:41.785Z,39.90
2018-10-16T12:17:16.974Z,33.53
2018-10-16T12:19:50.341Z,37.67
2018-10-16T12:22:18.771Z,31.10
2018-10-16T12:24:47.307Z,33.73
2018-10-16T12:27:15.995Z,31.17
2018-10-16T12:29:44.424Z,40.40
2018-10-16T12:32:12.948Z,35.10
2018-10-16T12:34:41.352Z,31.43
2018-10-16T12:37:09.902Z,32.53
2018-10-16T12:39:38.338Z,27.03
2018-10-16T12:42:06.784Z,27.87
2018-10-16T12:44:35.280Z,24.47
2018-10-16T12:47:03.893Z,20.70
2018-10-16T12:49:32.361Z,20.97
2018-10-16T12:52:00.818Z,26.10
2018-10-16T12:54:29.356Z,25.37
2018-10-16T12:56:57.924Z,24.60
2018-10-16T12:59:26.365Z,20.07
2018-10-16T13:01:55.372Z,19.40
2018-10-16T13:04:23.835Z,17.63
2018-10-16T13:06:52.309Z,17.30
2018-10-16T13:09:20.815Z,18.00
2018-10-16T13:11:49.274Z,15.13
2018-10-16T13:14:17.832Z,15.93
2018-10-16T13:16:46.251Z,18.97
2018-10-16T13:19:14.700Z,20.30
2018-10-16T13:21:43.248Z,16.87
2018-10-16T13:24:11.761Z,21.47
2018-10-16T13:26:40.245Z,16.00
2018-10-16T13:29:08.772Z,13.90
2018-10-16T13:31:37.254Z,15.90
2018-10-16T13:34:05.792Z,18.43
2018-10-16T13:36:34.249Z,15.13
2018-10-16T13:39:02.801Z,16.97
2018-10-16T13:41:31.296Z,13.43
2018-10-16T13:43:59.874Z,10.93
2018-10-16T13:46:28.472Z,14.37
2018-10-16T13:48:56.917Z,13.33
2018-10-16T13:51:25.382Z,12.80
2018-10-16T13:53:53.851Z,98.50
2018-10-16T13:56:22.329Z,34.03
2018-10-16T13:58:50.801Z,20.30
2018-10-16T14:01:20.112Z,18.30
2018-10-16T14:03:48.780Z,15.23
2018-10-16T14:06:17.234Z,13.43
2018-10-16T14:08:45.719Z,15.07
2018-10-16T14:11:14.199Z,42.50
2018-10-16T14:13:42.689Z,17.60
2018-10-16T14:16:11.399Z,21.20
2018-10-16T14:18:39.777Z,16.70
2018-10-16T14:21:08.249Z,112.60
2018-10-16T14:23:38.789Z,104.17
2018-10-16T14:26:07.428Z,45.40
2018-10-16T14:28:39.297Z,21.40
2018-10-16T14:31:09.324Z,27.93
2018-10-16T14:33:37.852Z,20.13
2018-10-16T14:36:07.260Z,18.80
2018-10-16T14:38:35.765Z,21.43
2018-10-16T14:41:04.297Z,21.77
2018-10-16T14:43:32.770Z,22.43
2018-10-16T14:46:01.927Z,12.87
2018-10-16T14:48:30.363Z,17.93
2018-10-16T14:51:14.862Z,11.07
2018-10-16T14:53:43.405Z,15.00
2018-10-16T14:56:11.957Z,7.63
2018-10-16T14:58:40.374Z,9.30
2018-10-16T15:01:08.869Z,13.83
2018-10-16T15:03:37.329Z,10.87
2018-10-16T15:06:05.813Z,12.00
2018-10-16T15:08:34.268Z,16.67
2018-10-16T15:11:02.762Z,15.27
2018-10-16T15:13:31.309Z,14.87
2018-10-16T15:15:59.852Z,11.90
2018-10-16T15:18:28.255Z,12.37
2018-10-16T15:20:56.741Z,13.80
2018-10-16T15:23:25.253Z,17.70
2018-10-16T15:25:53.733Z,13.73
2018-10-16T15:28:22.222Z,14.43
2018-10-16T15:30:50.707Z,12.57
2018-10-16T15:33:19.206Z,13.13
2018-10-16T15:35:47.781Z,17.27
2018-10-16T15:38:16.162Z,13.20
2018-10-16T15:40:44.615Z,15.73
2018-10-16T15:43:13.123Z,12.47
2018-10-16T15:45:41.583Z,17.20
2018-10-16T15:48:10.183Z,9.27
2018-10-16T15:50:38.651Z,17.70
2018-10-16T15:53:07.109Z,13.10
2018-10-16T15:55:35.585Z,12.27
2018-10-16T15:58:04.407Z,9.70
2018-10-16T16:00:32.847Z,13.70
2018-10-16T16:03:01.326Z,17.77
2018-10-16T16:05:29.820Z,40.63
2018-10-16T16:07:58.454Z,50.10
2018-10-16T16:10:26.878Z,21.33
2018-10-16T16:12:55.530Z,12.53
2018-10-16T16:15:24.072Z,11.30
2018-10-16T16:17:52.938Z,8.73
2018-10-16T16:20:21.460Z,12.57
2018-10-16T16:22:50.041Z,13.03
2018-10-16T16:25:18.571Z,9.73
2018-10-16T16:27:47.390Z,7.47
2018-10-16T16:30:16.793Z,10.17
2018-10-16T16:32:45.600Z,8.43
2018-10-16T16:35:14.493Z,14.17
2018-10-16T16:37:43.391Z,9.93
2018-10-16T16:40:13.593Z,14.93
2018-10-16T16:42:42.480Z,8.50
2018-10-16T16:45:12.036Z,7.53
2018-10-16T16:47:40.981Z,14.67
2018-10-16T16:50:11.108Z,13.80
2018-10-16T16:52:40.566Z,9.17
2018-10-16T16:55:11.094Z,13.33
2018-10-16T16:57:40.125Z,9.80
2018-10-16T17:00:11.698Z,8.57
2018-10-16T17:02:41.386Z,11.60
2018-10-16T17:05:11.021Z,10.57
2018-10-16T17:07:40.583Z,14.57
2018-10-16T17:10:09.727Z,15.30
2018-10-16T17:12:39.688Z,25.27
2018-10-16T17:15:11.914Z,30.53
2018-10-16T17:17:40.860Z,28.57
2018-10-16T17:20:10.680Z,26.70
2018-10-16T17:22:39.482Z,24.53
2018-10-16T17:25:10.155Z,21.10
2018-10-16T17:27:38.990Z,15.67
2018-10-16T17:30:10.071Z,13.53
2018-10-16T17:32:39.203Z,16.07
2018-10-16T17:35:09.630Z,21.17
2018-10-16T17:37:38.834Z,23.97
2018-10-16T17:40:09.292Z,19.03
2018-10-16T17:42:38.212Z,15.80
2018-10-16T17:45:08.681Z,14.33
2018-10-16T17:47:37.632Z,20.00
2018-10-16T17:50:08.793Z,20.57
2018-10-16T17:52:37.601Z,10.27
2018-10-16T17:55:07.069Z,13.27
2018-10-16T17:57:36.079Z,18.70
2018-10-16T18:00:05.322Z,8.23
2018-10-16T18:02:34.165Z,14.27
2018-10-16T18:05:03.020Z,14.10
2018-10-16T18:07:31.895Z,16.10
2018-10-16T18:10:00.746Z,11.87
2018-10-16T18:12:29.616Z,13.63
2018-10-16T18:14:58.503Z,15.73
2018-10-16T18:17:27.336Z,14.93
2018-10-16T18:19:56.207Z,11.33
2018-10-16T18:22:25.049Z,10.43
2018-10-16T18:24:53.922Z,12.27
2018-10-16T18:27:22.762Z,33.20
2018-10-16T18:29:51.671Z,14.40
2018-10-16T18:32:20.481Z,20.83
2018-10-16T18:34:50.361Z,17.77
2018-10-16T18:37:19.271Z,13.50
2018-10-16T18:39:48.164Z,12.27
2018-10-16T18:42:18.059Z,13.30
2018-10-16T18:44:46.899Z,13.60
2018-10-16T18:47:15.759Z,16.63
2018-10-16T18:49:44.693Z,17.60
2018-10-16T18:52:13.573Z,14.47
2018-10-16T18:54:42.421Z,16.73
2018-10-16T18:57:11.330Z,17.13
2018-10-16T18:59:40.096Z,23.60
2018-10-16T19:02:11.988Z,30.60
2018-10-16T19:04:40.818Z,23.70
2018-10-16T19:07:09.715Z,22.17
2018-10-16T19:09:38.340Z,12.90
2018-10-16T19:12:06.848Z,17.47
2018-10-16T19:14:35.348Z,22.47
2018-10-16T19:17:04.056Z,15.47
2018-10-16T19:19:32.880Z,17.93
2018-10-16T19:22:01.365Z,15.27
2018-10-16T19:24:29.838Z,21.23
2018-10-16T19:26:58.427Z,20.77
2018-10-16T19:29:28.520Z,25.83
2018-10-16T19:31:57.068Z,17.37
2018-10-16T19:34:25.556Z,22.60
2018-10-16T19:36:54.054Z,23.77
2018-10-16T19:39:23.079Z,22.60
2018-10-16T19:41:52.268Z,22.30
2018-10-16T19:44:20.740Z,18.70
2018-10-16T19:46:49.552Z,21.17
2018-10-16T19:49:18.397Z,21.63
2018-10-16T19:51:47.241Z,17.80
2018-10-16T19:54:16.841Z,16.07
2018-10-16T19:56:45.737Z,14.17
2018-10-16T19:59:14.621Z,16.23
2018-10-16T20:01:43.479Z,19.60
2018-10-16T20:04:12.348Z,14.90
2018-10-16T20:06:41.225Z,17.77
2018-10-16T20:09:11.244Z,14.87
2018-10-16T20:11:40.625Z,24.40
2018-10-16T20:14:09.664Z,22.50
2018-10-16T20:16:38.538Z,19.70
2018-10-16T20:19:08.577Z,19.63
2018-10-16T20:21:37.271Z,17.43
2018-10-16T20:24:05.887Z,19.27
2018-10-16T20:26:35.417Z,13.63
2018-10-16T20:29:04.934Z,20.40
2018-10-16T20:31:33.629Z,18.50
2018-10-16T20:34:02.160Z,20.03
2018-10-16T20:36:30.797Z,15.53
2018-10-16T20:38:59.289Z,26.73
2018-10-16T20:41:27.793Z,18.23
2018-10-16T20:43:56.331Z,22.57
2018-10-16T20:46:26.034Z,17.87
2018-10-16T20:48:54.601Z,14.80
2018-10-16T20:51:23.944Z,15.63
2018-10-16T20:53:53.439Z,15.17
2018-10-16T20:56:21.958Z,15.57
2018-10-16T20:58:52.344Z,20.53
2018-10-16T21:01:21.099Z,19.73
2018-10-16T21:03:50.280Z,19.63
2018-10-16T21:06:21.051Z,17.27
2018-10-16T21:08:51.249Z,19.33
2018-10-16T21:11:20.233Z,18.47
2018-10-16T21:13:49.070Z,23.07
2018-10-16T21:16:17.926Z,19.13
2018-10-16T21:18:46.783Z,16.27
2018-10-16T21:21:15.680Z,16.47
2018-10-16T21:23:44.529Z,19.20
2018-10-16T21:26:14.470Z,16.40
2018-10-16T21:28:43.318Z,19.20
2018-10-16T21:31:12.251Z,16.47
2018-10-16T21:33:41.056Z,16.43
2018-10-16T21:36:09.908Z,23.97
2018-10-16T21:38:38.789Z,15.97
2018-10-16T21:41:07.732Z,19.73
2018-10-16T21:43:36.561Z,18.20
2018-10-16T21:46:06.028Z,18.10
2018-10-16T21:48:34.891Z,18.30
2018-10-16T21:51:03.873Z,13.50
2018-10-16T21:53:32.816Z,15.77
2018-10-16T21:56:01.664Z,18.37
2018-10-16T21:58:30.499Z,22.43
2018-10-16T22:01:04.769Z,14.87
2018-10-16T22:03:33.550Z,18.90
2018-10-16T22:06:02.396Z,29.20
2018-10-16T22:08:31.262Z,33.20
2018-10-16T22:11:00.138Z,29.60
2018-10-16T22:13:29.011Z,24.70
2018-10-16T22:15:58.956Z,32.03
2018-10-16T22:18:27.890Z,33.20
2018-10-16T22:20:56.792Z,19.50
2018-10-16T22:23:25.735Z,41.97
2018-10-16T22:25:54.578Z,28.83
2018-10-16T22:28:23.421Z,30.50
2018-10-16T22:30:52.289Z,21.43
2018-10-16T22:33:21.113Z,22.17
2018-10-16T22:35:49.974Z,26.87
2018-10-16T22:38:18.865Z,23.63
2018-10-16T22:40:47.416Z,17.67
2018-10-16T22:43:15.955Z,22.27
2018-10-16T22:45:44.405Z,20.07
2018-10-16T22:48:13.169Z,18.30
2018-10-16T22:50:41.724Z,16.77
2018-10-16T22:53:10.239Z,16.97
2018-10-16T22:55:38.701Z,15.27
2018-10-16T22:58:07.199Z,15.87
2018-10-16T23:00:35.687Z,19.23
2018-10-16T23:03:04.205Z,20.40
2018-10-16T23:05:32.678Z,18.83
2018-10-16T23:08:01.474Z,17.47
2018-10-16T23:10:30.023Z,17.13
2018-10-16T23:12:59.529Z,18.20
2018-10-16T23:15:27.965Z,16.00
2018-10-16T23:17:56.487Z,17.77
2018-10-16T23:20:24.984Z,17.87
2018-10-16T23:22:53.505Z,13.97
2018-10-16T23:25:22.028Z,15.90
2018-10-16T23:27:50.506Z,15.30
2018-10-16T23:30:18.975Z,17.63
2018-10-16T23:32:47.967Z,17.50
2018-10-16T23:35:16.813Z,15.83
2018-10-16T23:37:45.256Z,14.13
2018-10-16T23:40:13.741Z,17.47
2018-10-16T23:42:42.209Z,15.87
2018-10-16T23:45:10.745Z,14.17
2018-10-16T23:47:39.252Z,12.33
2018-10-16T23:50:07.713Z,13.43
2018-10-16T23:52:36.184Z,13.60
2018-10-16T23:55:05.496Z,15.43
2018-10-16T23:57:33.979Z,15.10
